CNU4 weather

Belleville Airport
Belleville, Ontario, Canada

Public forecast

Using degrees Celsius for public forecast. Weather courtesy of forecast.io.

Closest aviation weather report (METAR) to Belleville Airport

Closest report is CFB Trenton, 10.4 nm (19.3 km) WSW. Retrieved 2019/10/18 07:00 UTC (16 minutes ago):

CYTR 180700Z 32008KT 15SM OVC026 08/03 A2979 RMK SC8 SLP089

Closest aviation forecast (TAF) to Belleville Airport

Closest forecast is CFB Trenton, 10.4 nm (19.3 km) WSW. Retrieved 2019/10/18 06:33 UTC (43 minutes ago):

TAF CYTR 180530Z 1806/1906 32007KT P6SM OVC030 TEMPO 1806/1813 OVC020 FM181300 32010KT P6SM BKN025 FM181800 32008KT P6SM FEW030 BECMG 1822/1824 30005KT RMK NXT FCST BY 181200Z